createdAt,value
2023-04-27T04:50:36.984Z,12.20
2023-04-27T04:55:39.732Z,10.93
2023-04-27T05:00:43.111Z,9.80
2023-04-27T05:05:46.050Z,9.73
2023-04-27T05:10:52.621Z,8.40
2023-04-27T05:15:55.415Z,8.13
2023-04-27T05:20:58.398Z,9.23
2023-04-27T05:26:01.214Z,11.23
2023-04-27T05:31:03.983Z,13.87
2023-04-27T05:36:07.083Z,12.17
2023-04-27T05:41:09.845Z,10.63
2023-04-27T05:46:15.596Z,14.63
2023-04-27T05:51:18.453Z,7.23
2023-04-27T05:56:21.948Z,8.50
2023-04-27T06:01:24.699Z,8.43
2023-04-27T06:06:28.317Z,5.80
2023-04-27T06:11:31.064Z,10.13
2023-04-27T06:16:33.882Z,8.17
2023-04-27T06:21:36.786Z,9.13
2023-04-27T06:26:39.623Z,10.13
2023-04-27T06:31:42.374Z,13.63
2023-04-27T06:36:45.203Z,12.87
2023-04-27T06:41:47.958Z,9.40
2023-04-27T06:46:51.337Z,13.53
2023-04-27T06:51:54.087Z,8.27
2023-04-27T06:56:56.824Z,4.87
2023-04-27T07:01:59.726Z,8.73
2023-04-27T07:07:02.589Z,10.87
2023-04-27T07:12:05.650Z,8.77
2023-04-27T07:17:08.395Z,7.03
2023-04-27T07:22:11.765Z,10.17
2023-04-27T07:27:15.053Z,11.60
2023-04-27T07:32:18.006Z,5.00
2023-04-27T07:37:21.181Z,5.53
2023-04-27T07:42:25.103Z,4.23
2023-04-27T07:47:28.097Z,7.63
2023-04-27T07:52:30.960Z,2.60
2023-04-27T07:57:33.697Z,7.60
2023-04-27T08:02:36.688Z,4.43
2023-04-27T08:07:44.398Z,3.97
2023-04-27T08:12:47.514Z,4.53
2023-04-27T08:17:50.349Z,2.00
2023-04-27T08:22:53.213Z,4.30
2023-04-27T08:27:56.169Z,4.83
2023-04-27T08:32:59.005Z,5.17
2023-04-27T08:38:01.972Z,2.60
2023-04-27T08:43:04.863Z,3.07
2023-04-27T08:48:07.899Z,4.83
2023-04-27T08:53:21.509Z,4.33
2023-04-27T08:58:37.249Z,2.13
2023-04-27T09:03:40.150Z,1.80
2023-04-27T09:08:46.560Z,2.70
2023-04-27T09:13:49.370Z,6.43
2023-04-27T09:18:52.108Z,3.13
2023-04-27T09:23:55.949Z,5.20
2023-04-27T09:28:58.740Z,2.53
2023-04-27T09:34:01.934Z,3.40
2023-04-27T09:39:05.358Z,2.53
2023-04-27T09:44:09.928Z,9.20
2023-04-27T09:49:14.010Z,3.77
2023-04-27T09:54:17.382Z,2.67
2023-04-27T09:59:58.426Z,3.47
2023-04-27T10:05:29.445Z,4.27
2023-04-27T10:10:43.970Z,3.83
2023-04-27T10:15:46.980Z,12.60
2023-04-27T10:20:51.790Z,5.40
2023-04-27T10:25:55.803Z,2.50
2023-04-27T10:30:58.716Z,5.50
2023-04-27T10:36:01.538Z,3.87
2023-04-27T10:41:07.673Z,3.67
2023-04-27T10:46:15.736Z,3.23
2023-04-27T10:51:18.594Z,3.83
2023-04-27T10:56:21.365Z,3.10
2023-04-27T11:01:25.446Z,3.20
2023-04-27T11:06:34.902Z,5.47
2023-04-27T11:11:37.991Z,2.40
2023-04-27T11:16:47.647Z,2.20
2023-04-27T11:21:50.896Z,2.27
2023-04-27T11:26:53.722Z,5.27
2023-04-27T11:31:56.820Z,2.80
2023-04-27T11:42:19.768Z,3.47
2023-04-27T11:47:23.538Z,3.67
2023-04-27T11:52:30.433Z,5.10
2023-04-27T11:57:34.737Z,4.30
2023-04-27T12:02:38.090Z,4.90
2023-04-27T12:07:41.491Z,2.57
2023-04-27T12:12:44.315Z,3.97
2023-04-27T12:17:47.199Z,3.53
2023-04-27T12:22:50.233Z,3.50
2023-04-27T12:27:53.367Z,2.63
2023-04-27T12:32:56.260Z,4.73
2023-04-27T12:37:59.062Z,4.67
2023-04-27T12:43:01.873Z,3.57
2023-04-27T12:48:04.735Z,6.27
2023-04-27T12:53:07.496Z,7.03
2023-04-27T12:58:10.325Z,2.97
2023-04-27T13:03:13.399Z,6.67
2023-04-27T13:08:16.492Z,7.93
2023-04-27T13:13:19.235Z,6.10
2023-04-27T13:18:22.028Z,5.33
2023-04-27T13:23:28.709Z,4.73
2023-04-27T13:28:31.622Z,4.93
2023-04-27T13:33:44.094Z,3.97
2023-04-27T13:38:46.988Z,4.10
2023-04-27T13:43:49.779Z,4.03
2023-04-27T13:48:52.738Z,2.33
2023-04-27T13:53:55.908Z,4.13
2023-04-27T13:58:58.728Z,5.20
2023-04-27T14:04:02.279Z,3.10
2023-04-27T14:09:05.775Z,4.03
2023-04-27T14:14:08.519Z,4.53
2023-04-27T14:19:14.956Z,3.20
2023-04-27T14:24:18.077Z,3.27
2023-04-27T14:29:21.270Z,4.57
2023-04-27T14:34:24.304Z,6.07
2023-04-27T14:39:29.838Z,5.80
2023-04-27T14:44:32.626Z,5.00
2023-04-27T14:49:35.457Z,9.27
2023-04-27T14:54:38.781Z,3.97
2023-04-27T14:59:41.643Z,4.00
2023-04-27T15:04:44.474Z,3.33
2023-04-27T15:09:47.261Z,4.77
2023-04-27T15:14:51.733Z,4.83
2023-04-27T15:19:55.319Z,4.60
2023-04-27T15:24:58.333Z,4.17
2023-04-27T15:30:03.961Z,7.27
2023-04-27T15:35:08.305Z,6.20
2023-04-27T15:40:11.657Z,5.73
2023-04-27T15:45:14.458Z,3.87
2023-04-27T15:50:18.036Z,2.93
2023-04-27T15:55:22.034Z,6.17
2023-04-27T16:00:24.959Z,5.13
2023-04-27T16:05:27.818Z,4.63
2023-04-27T16:10:30.746Z,6.20
2023-04-27T16:15:33.519Z,8.90
2023-04-27T16:20:36.637Z,4.57
2023-04-27T16:25:39.556Z,5.03
2023-04-27T16:30:42.360Z,3.67
2023-04-27T16:35:45.154Z,8.93
2023-04-27T16:40:47.921Z,6.93
2023-04-27T16:45:51.304Z,4.37
2023-04-27T16:50:55.625Z,5.43
2023-04-27T16:56:03.158Z,5.03
2023-04-27T17:01:06.023Z,6.97
2023-04-27T17:06:08.915Z,4.60
2023-04-27T17:11:12.216Z,4.67
2023-04-27T17:16:16.125Z,5.73
2023-04-27T17:21:21.565Z,4.57
2023-04-27T17:26:24.354Z,4.87
2023-04-27T17:31:27.547Z,5.57
2023-04-27T17:36:31.591Z,14.53
2023-04-27T17:41:36.776Z,2.13
2023-04-27T17:46:45.001Z,10.07
2023-04-27T17:51:48.243Z,2.97
2023-04-27T17:56:51.252Z,3.87
2023-04-27T18:01:54.278Z,5.67
2023-04-27T18:07:00.224Z,9.80
2023-04-27T18:12:03.124Z,5.47
2023-04-27T18:17:06.279Z,4.00
2023-04-27T18:22:09.435Z,3.93
2023-04-27T18:27:12.441Z,4.57
2023-04-27T18:32:40.477Z,4.43
2023-04-27T18:37:48.098Z,37.97
2023-04-27T18:42:51.616Z,14.70
2023-04-27T18:47:54.415Z,11.80
2023-04-27T18:52:58.841Z,6.33
2023-04-27T18:58:01.625Z,4.27
2023-04-27T19:03:05.092Z,5.90
2023-04-27T19:08:08.213Z,9.67
2023-04-27T19:13:11.072Z,8.90
2023-04-27T19:18:13.958Z,7.63
2023-04-27T19:23:19.101Z,8.37
2023-04-27T19:28:23.322Z,7.33
2023-04-27T19:33:26.252Z,20.43
2023-04-27T19:38:29.565Z,23.57
2023-04-27T19:43:32.540Z,24.37
2023-04-27T19:48:35.283Z,16.90
2023-04-27T19:53:38.707Z,23.03
2023-04-27T19:58:41.665Z,19.10
2023-04-27T20:03:44.610Z,19.53
2023-04-27T20:08:47.937Z,15.97
2023-04-27T20:13:50.756Z,15.10
2023-04-27T20:18:53.549Z,8.10
2023-04-27T20:23:56.432Z,12.03
2023-04-27T20:28:59.242Z,9.80
2023-04-27T20:34:02.001Z,16.33
2023-04-27T20:39:05.585Z,11.57
2023-04-27T20:44:11.935Z,7.43
2023-04-27T20:49:19.120Z,9.53
2023-04-27T20:54:27.585Z,8.37
2023-04-27T20:59:30.387Z,6.83
2023-04-27T21:04:33.290Z,8.33
2023-04-27T21:09:36.247Z,11.93
2023-04-27T21:14:39.045Z,8.33
2023-04-27T21:19:42.333Z,6.83
2023-04-27T21:24:45.995Z,9.97
2023-04-27T21:29:49.038Z,8.67
2023-04-27T21:34:51.883Z,7.37
2023-04-27T21:39:54.687Z,16.47
2023-04-27T21:44:57.547Z,11.07
2023-04-27T21:50:00.506Z,16.17
2023-04-27T21:55:03.553Z,15.13
2023-04-27T22:00:13.820Z,13.50
2023-04-27T22:05:17.067Z,12.23
2023-04-27T22:10:19.856Z,10.90
2023-04-27T22:15:22.749Z,10.07
2023-04-27T22:20:25.670Z,15.93
2023-04-27T22:25:28.466Z,12.13
2023-04-27T22:30:31.908Z,14.03
2023-04-27T22:35:35.121Z,13.63
2023-04-27T22:40:37.967Z,16.40
2023-04-27T22:45:40.765Z,18.10
2023-04-27T22:50:43.528Z,22.70
2023-04-27T22:55:46.694Z,20.73
2023-04-27T23:00:49.509Z,21.47
2023-04-27T23:05:53.707Z,20.83
2023-04-27T23:10:56.932Z,23.43
2023-04-27T23:15:59.726Z,38.33
2023-04-27T23:21:02.505Z,25.80
2023-04-27T23:26:14.383Z,31.07
2023-04-27T23:31:17.256Z,31.33
2023-04-27T23:36:20.003Z,41.07
2023-04-27T23:41:23.386Z,28.23
